createdAt,value
2023-04-28T00:04:25.902Z,4.27
2023-04-28T00:09:28.289Z,3.77
2023-04-28T00:14:30.125Z,2.93
2023-04-28T00:19:31.949Z,3.90
2023-04-28T00:24:33.972Z,3.17
2023-04-28T00:29:38.203Z,3.97
2023-04-28T00:34:40.047Z,3.07
2023-04-28T00:39:41.944Z,3.83
2023-04-28T00:44:43.654Z,3.50
2023-04-28T01:06:52.918Z,3.50
2023-04-28T01:11:55.600Z,3.40
2023-04-28T01:16:57.642Z,3.60
2023-04-28T01:21:59.532Z,4.43
2023-04-28T01:27:01.267Z,4.90
2023-04-28T01:32:03.583Z,4.37
2023-04-28T01:37:05.439Z,4.50
2023-04-28T01:42:07.224Z,4.73
2023-04-28T01:47:09.459Z,5.37
2023-04-28T01:52:11.146Z,5.07
2023-04-28T01:57:12.834Z,5.40
2023-04-28T02:02:14.948Z,6.10
2023-04-28T02:07:16.785Z,5.53
2023-04-28T02:12:18.535Z,5.57
2023-04-28T02:17:20.320Z,5.00
2023-04-28T02:22:22.229Z,5.63
2023-04-28T02:27:23.908Z,5.03
2023-04-28T02:32:25.783Z,5.53
2023-04-28T02:37:27.664Z,5.97
2023-04-28T02:42:29.364Z,5.97
2023-04-28T02:47:31.375Z,6.23
2023-04-28T02:52:33.086Z,6.40
2023-04-28T02:57:34.884Z,7.00
2023-04-28T03:08:53.547Z,7.03
2023-04-28T03:13:55.324Z,6.37
2023-04-28T03:18:57.035Z,6.77
2023-04-28T03:23:58.773Z,6.07
2023-04-28T03:29:00.520Z,5.60
2023-04-28T03:34:03.305Z,7.70
2023-04-28T03:39:05.069Z,6.57
2023-04-28T03:44:06.805Z,8.00
2023-04-28T03:49:08.477Z,6.50
2023-04-28T03:54:10.301Z,6.80
2023-04-28T03:59:13.043Z,6.10
2023-04-28T04:04:15.074Z,7.07
2023-04-28T04:09:21.044Z,5.50
2023-04-28T04:14:22.813Z,6.63
2023-04-28T04:19:26.447Z,6.90
2023-04-28T04:24:28.162Z,7.17
2023-04-28T04:29:29.957Z,6.60
2023-04-28T04:34:31.928Z,7.27
2023-04-28T04:39:33.772Z,7.23
2023-04-28T04:44:35.516Z,7.87
2023-04-28T04:49:37.461Z,7.97
2023-04-28T04:54:39.334Z,7.13
2023-04-28T04:59:41.349Z,7.20
2023-04-28T05:04:43.344Z,7.43
2023-04-28T05:09:45.218Z,8.00
2023-04-28T05:14:46.977Z,8.07
2023-04-28T05:19:48.757Z,6.87
2023-04-28T05:24:50.624Z,7.10
2023-04-28T05:29:52.505Z,8.00
2023-04-28T05:34:54.197Z,8.37
2023-04-28T05:39:56.022Z,8.13
2023-04-28T05:44:57.806Z,9.50
2023-04-28T05:49:59.615Z,8.23
2023-04-28T05:55:01.470Z,7.53
2023-04-28T06:00:03.645Z,8.20
2023-04-28T06:10:29.077Z,9.77
2023-04-28T06:15:31.039Z,9.00
2023-04-28T06:25:50.107Z,9.20
2023-04-28T06:36:17.961Z,9.33
2023-04-28T06:41:19.886Z,8.60
2023-04-28T06:46:21.773Z,9.53
2023-04-28T06:51:23.837Z,9.07
2023-04-28T06:56:26.753Z,8.93
2023-04-28T07:01:28.571Z,10.07
2023-04-28T07:06:31.836Z,9.27
2023-04-28T07:11:33.579Z,9.23
2023-04-28T07:16:36.035Z,10.33
2023-04-28T07:21:37.739Z,8.77
2023-04-28T07:26:39.445Z,9.00
2023-04-28T07:31:41.271Z,9.27
2023-04-28T07:36:43.059Z,9.30
2023-04-28T07:41:44.926Z,10.93
2023-04-28T07:46:46.767Z,10.73
2023-04-28T07:51:48.609Z,9.73
2023-04-28T07:56:50.474Z,10.17
2023-04-28T08:01:52.276Z,10.40
2023-04-28T08:12:11.159Z,10.40
2023-04-28T08:17:13.169Z,9.23
2023-04-28T08:22:14.998Z,9.03
2023-04-28T08:27:16.955Z,9.10
2023-04-28T08:32:21.427Z,9.00
2023-04-28T08:37:49.567Z,9.90
2023-04-28T08:42:51.465Z,9.53
2023-04-28T08:47:54.543Z,8.37
2023-04-28T08:52:57.490Z,8.43
2023-04-28T08:58:05.934Z,8.47
2023-04-28T09:03:09.125Z,8.90
2023-04-28T09:08:12.267Z,8.60
2023-04-28T09:13:25.553Z,10.63
2023-04-28T09:18:28.740Z,10.50
2023-04-28T09:23:30.448Z,10.80
2023-04-28T09:28:33.620Z,11.53
2023-04-28T09:33:35.563Z,9.27
2023-04-28T09:38:43.934Z,10.77
2023-04-28T09:43:46.166Z,9.27
2023-04-28T09:48:48.365Z,8.87
2023-04-28T09:53:50.133Z,9.20
2023-04-28T09:58:52.980Z,7.87
2023-04-28T10:03:55.229Z,8.07
2023-04-28T10:08:58.973Z,8.20
2023-04-28T10:14:00.969Z,7.87
2023-04-28T10:19:03.336Z,9.63
2023-04-28T10:24:11.645Z,8.20
2023-04-28T10:29:14.471Z,7.97
2023-04-28T10:34:22.905Z,7.83
2023-04-28T10:39:24.627Z,7.73
2023-04-28T10:44:29.358Z,8.87
2023-04-28T10:49:57.384Z,7.63
2023-04-28T10:55:36.261Z,7.63
2023-04-28T11:00:38.725Z,8.17
2023-04-28T11:05:40.432Z,8.07
2023-04-28T11:11:10.070Z,8.17
2023-04-28T11:16:20.235Z,7.87
2023-04-28T11:21:23.469Z,8.60
2023-04-28T11:26:25.758Z,8.83
2023-04-28T11:31:28.593Z,9.40
2023-04-28T11:36:35.966Z,8.03
2023-04-28T11:41:44.754Z,10.07
2023-04-28T11:46:47.663Z,8.27
2023-04-28T11:51:50.450Z,8.33
2023-04-28T11:56:53.630Z,8.40
2023-04-28T12:07:12.924Z,9.70
2023-04-28T12:12:18.492Z,9.00
2023-04-28T12:17:27.145Z,9.80
2023-04-28T12:22:30.060Z,8.97
2023-04-28T12:27:32.204Z,9.30
2023-04-28T12:32:41.742Z,9.20
2023-04-28T12:37:44.187Z,8.87
2023-04-28T12:42:45.958Z,9.10
2023-04-28T12:47:49.666Z,10.87
2023-04-28T12:52:51.455Z,11.37
2023-04-28T12:57:53.162Z,10.87
2023-04-28T13:02:55.019Z,10.10
2023-04-28T13:07:56.883Z,11.07
2023-04-28T13:12:58.567Z,8.83
2023-04-28T13:18:00.354Z,8.13
2023-04-28T13:23:02.179Z,8.83
2023-04-28T13:28:04.119Z,8.67
2023-04-28T13:33:05.958Z,9.27
2023-04-28T13:48:56.008Z,10.10
2023-04-28T13:53:57.713Z,10.47
2023-04-28T14:04:33.803Z,10.30
2023-04-28T14:26:00.158Z,11.40
2023-04-28T14:47:34.356Z,12.13
2023-04-28T14:52:36.411Z,10.73
2023-04-28T14:57:38.396Z,14.47
2023-04-28T15:02:41.765Z,12.07
2023-04-28T15:07:43.625Z,11.50
2023-04-28T15:12:45.618Z,12.43
2023-04-28T15:17:47.467Z,12.80
2023-04-28T15:22:49.145Z,12.90
2023-04-28T15:27:51.078Z,13.13
2023-04-28T15:32:53.090Z,14.03
2023-04-28T15:37:56.376Z,13.87
2023-04-28T15:42:59.931Z,15.63
2023-04-28T15:48:02.151Z,14.67
2023-04-28T15:53:04.008Z,13.93
2023-04-28T15:58:05.875Z,13.00
2023-04-28T16:03:07.682Z,12.53
2023-04-28T16:08:09.726Z,13.83
2023-04-28T16:13:12.260Z,13.73
2023-04-28T16:18:14.180Z,15.07
2023-04-28T16:23:16.662Z,15.37
2023-04-28T16:28:18.357Z,14.97
2023-04-28T16:33:20.156Z,15.93
2023-04-28T16:38:21.903Z,14.75
2023-04-28T16:43:23.611Z,12.17
2023-04-28T16:48:26.770Z,12.83
2023-04-28T16:53:28.712Z,10.27
2023-04-28T17:04:46.855Z,8.83
2023-04-28T17:09:48.838Z,7.73
2023-04-28T17:14:54.509Z,7.97
2023-04-28T17:19:57.786Z,7.00
2023-04-28T17:24:59.747Z,6.70
2023-04-28T17:30:01.727Z,6.67
2023-04-28T17:35:03.815Z,6.43
2023-04-28T17:40:05.965Z,4.30
2023-04-28T17:45:08.715Z,4.67
2023-04-28T17:50:35.617Z,4.27
2023-04-28T17:55:37.402Z,4.23
2023-04-28T18:05:59.212Z,3.70
2023-04-28T18:11:01.299Z,3.90
2023-04-28T18:16:05.093Z,4.33
2023-04-28T18:21:07.121Z,4.00
2023-04-28T18:26:11.773Z,3.70
2023-04-28T18:31:14.930Z,4.20
2023-04-28T18:36:16.782Z,4.27
2023-04-28T18:41:18.881Z,4.20
2023-04-28T18:46:21.157Z,4.37
2023-04-28T18:51:23.174Z,4.10
2023-04-28T18:56:24.990Z,4.13
2023-04-28T19:01:27.629Z,4.40
2023-04-28T19:06:29.644Z,5.40
2023-04-28T19:11:32.013Z,4.73
2023-04-28T19:16:33.736Z,5.50
2023-04-28T19:21:42.552Z,4.83
2023-04-28T19:26:44.845Z,5.80
2023-04-28T19:31:46.874Z,5.57
2023-04-28T19:36:48.483Z,6.10
2023-04-28T19:41:50.614Z,5.80
2023-04-28T19:46:52.268Z,5.50
2023-04-28T19:51:53.941Z,15.30
2023-04-28T19:56:55.626Z,6.57
2023-04-28T20:01:57.678Z,6.23
2023-04-28T20:06:59.369Z,7.13
2023-04-28T20:12:04.264Z,7.63
2023-04-28T20:17:07.876Z,7.50
2023-04-28T20:22:09.619Z,8.53
2023-04-28T20:27:12.189Z,8.17
2023-04-28T20:32:14.018Z,8.43
2023-04-28T20:37:15.854Z,8.83
2023-04-28T20:42:17.924Z,8.50
2023-04-28T20:47:19.616Z,8.63
2023-04-28T20:52:21.760Z,9.27
2023-04-28T20:57:23.542Z,8.93
2023-04-28T21:02:25.561Z,12.17
2023-04-28T21:07:27.459Z,9.53
2023-04-28T21:12:29.213Z,10.03
2023-04-28T21:17:31.004Z,9.90
2023-04-28T21:22:32.699Z,10.67
2023-04-28T21:27:34.395Z,10.27
2023-04-28T21:32:36.102Z,11.97
2023-04-28T21:37:38.003Z,14.33
2023-04-28T21:42:39.646Z,9.07
2023-04-28T21:47:43.419Z,8.03
2023-04-28T21:52:45.353Z,8.83
2023-04-28T21:57:47.020Z,9.53
2023-04-28T22:02:49.237Z,9.53
2023-04-28T22:07:53.135Z,10.10
2023-04-28T22:12:54.798Z,10.57
2023-04-28T22:17:58.087Z,15.47
2023-04-28T22:23:00.203Z,12.07
2023-04-28T22:28:03.416Z,11.97
2023-04-28T22:33:05.579Z,10.47
2023-04-28T22:38:07.920Z,11.70
2023-04-28T22:43:09.996Z,12.13
2023-04-28T22:48:13.526Z,12.03
2023-04-28T22:53:15.448Z,12.73
2023-04-28T22:58:17.326Z,10.97
2023-04-28T23:03:19.468Z,11.43
2023-04-28T23:08:22.498Z,11.10
2023-04-28T23:13:25.013Z,11.57
2023-04-28T23:18:30.396Z,12.07
2023-04-28T23:23:33.176Z,11.07
2023-04-28T23:28:34.923Z,11.40
2023-04-28T23:33:36.611Z,12.60
2023-04-28T23:38:38.903Z,12.87
2023-04-28T23:43:40.892Z,13.57
2023-04-28T23:48:42.660Z,15.50
2023-04-28T23:53:44.404Z,16.33
2023-04-28T23:58:46.360Z,16.63
